sensor_id;sensor_type;location;lat;lon;timestamp;temperature;humidity
3628;DHT22;1830;49.000;12.074;2023-07-28T00:01:56;15.80;99.90
3628;DHT22;1830;49.000;12.074;2023-07-28T00:04:23;15.80;99.90
3628;DHT22;1830;49.000;12.074;2023-07-28T00:06:50;15.80;99.90
3628;DHT22;1830;49.000;12.074;2023-07-28T00:09:17;15.80;99.90
3628;DHT22;1830;49.000;12.074;2023-07-28T00:11:44;15.80;99.90
3628;DHT22;1830;49.000;12.074;2023-07-28T00:14:12;15.80;99.90
3628;DHT22;1830;49.000;12.074;2023-07-28T00:16:39;15.80;99.90
3628;DHT22;1830;49.000;12.074;2023-07-28T00:19:06;15.80;99.90
3628;DHT22;1830;49.000;12.074;2023-07-28T00:21:33;15.80;99.90
3628;DHT22;1830;49.000;12.074;2023-07-28T00:24:00;15.80;99.90
3628;DHT22;1830;49.000;12.074;2023-07-28T00:26:27;15.80;99.90
3628;DHT22;1830;49.000;12.074;2023-07-28T00:28:53;15.80;99.90
3628;DHT22;1830;49.000;12.074;2023-07-28T00:31:21;15.80;99.90
3628;DHT22;1830;49.000;12.074;2023-07-28T00:33:48;15.70;99.90
3628;DHT22;1830;49.000;12.074;2023-07-28T00:36:15;15.70;99.90
3628;DHT22;1830;49.000;12.074;2023-07-28T00:38:42;15.70;99.90
3628;DHT22;1830;49.000;12.074;2023-07-28T00:41:08;15.70;99.90
3628;DHT22;1830;49.000;12.074;2023-07-28T00:43:35;15.70;99.90
3628;DHT22;1830;49.000;12.074;2023-07-28T00:46:02;15.70;99.90
3628;DHT22;1830;49.000;12.074;2023-07-28T00:48:30;15.80;99.90
3628;DHT22;1830;49.000;12.074;2023-07-28T00:50:57;15.80;99.90
3628;DHT22;1830;49.000;12.074;2023-07-28T00:53:24;15.70;99.90
3628;DHT22;1830;49.000;12.074;2023-07-28T00:55:52;15.70;99.90
3628;DHT22;1830;49.000;12.074;2023-07-28T00:58:19;15.70;99.90
3628;DHT22;1830;49.000;12.074;2023-07-28T01:00:45;15.70;99.90
3628;DHT22;1830;49.000;12.074;2023-07-28T01:03:12;15.70;99.90
3628;DHT22;1830;49.000;12.074;2023-07-28T01:05:46;15.70;99.90
3628;DHT22;1830;49.000;12.074;2023-07-28T01:08:19;15.70;99.90
3628;DHT22;1830;49.000;12.074;2023-07-28T01:10:48;15.70;99.90
3628;DHT22;1830;49.000;12.074;2023-07-28T01:13:15;15.70;99.90
3628;DHT22;1830;49.000;12.074;2023-07-28T01:15:42;15.70;99.90
3628;DHT22;1830;49.000;12.074;2023-07-28T01:18:09;15.70;99.90
3628;DHT22;1830;49.000;12.074;2023-07-28T01:20:36;15.70;99.90
3628;DHT22;1830;49.000;12.074;2023-07-28T01:23:14;15.70;99.90
3628;DHT22;1830;49.000;12.074;2023-07-28T01:25:50;15.70;99.90
3628;DHT22;1830;49.000;12.074;2023-07-28T01:28:23;15.70;99.90
3628;DHT22;1830;49.000;12.074;2023-07-28T01:30:50;15.70;99.90
3628;DHT22;1830;49.000;12.074;2023-07-28T01:33:17;15.70;99.90
3628;DHT22;1830;49.000;12.074;2023-07-28T01:35:44;15.70;99.90
3628;DHT22;1830;49.000;12.074;2023-07-28T01:38:10;15.70;99.90
3628;DHT22;1830;49.000;12.074;2023-07-28T01:40:38;15.70;99.90
3628;DHT22;1830;49.000;12.074;2023-07-28T01:43:05;15.70;99.90
3628;DHT22;1830;49.000;12.074;2023-07-28T01:45:33;15.70;99.90
3628;DHT22;1830;49.000;12.074;2023-07-28T01:48:00;15.70;99.90
3628;DHT22;1830;49.000;12.074;2023-07-28T01:50:27;15.70;99.90
3628;DHT22;1830;49.000;12.074;2023-07-28T01:52:53;15.70;99.90
3628;DHT22;1830;49.000;12.074;2023-07-28T01:55:20;15.60;99.90
3628;DHT22;1830;49.000;12.074;2023-07-28T01:57:59;15.60;99.90
3628;DHT22;1830;49.000;12.074;2023-07-28T02:00:26;15.60;99.90
3628;DHT22;1830;49.000;12.074;2023-07-28T02:02:55;15.60;99.90
3628;DHT22;1830;49.000;12.074;2023-07-28T02:05:23;15.50;99.90
3628;DHT22;1830;49.000;12.074;2023-07-28T02:07:50;15.50;99.90
3628;DHT22;1830;49.000;12.074;2023-07-28T02:10:17;15.50;99.90
3628;DHT22;1830;49.000;12.074;2023-07-28T02:12:44;15.50;99.90
3628;DHT22;1830;49.000;12.074;2023-07-28T02:15:11;15.50;99.90
3628;DHT22;1830;49.000;12.074;2023-07-28T02:17:38;15.50;99.90
3628;DHT22;1830;49.000;12.074;2023-07-28T02:20:08;15.50;99.90
3628;DHT22;1830;49.000;12.074;2023-07-28T02:22:38;15.60;99.90
3628;DHT22;1830;49.000;12.074;2023-07-28T02:25:05;15.60;99.90
3628;DHT22;1830;49.000;12.074;2023-07-28T02:27:32;15.60;99.90
3628;DHT22;1830;49.000;12.074;2023-07-28T02:29:59;15.60;99.90
3628;DHT22;1830;49.000;12.074;2023-07-28T02:32:27;15.50;99.90
3628;DHT22;1830;49.000;12.074;2023-07-28T02:34:54;15.50;99.90
3628;DHT22;1830;49.000;12.074;2023-07-28T02:37:22;15.50;99.90
3628;DHT22;1830;49.000;12.074;2023-07-28T02:39:49;15.40;99.90
3628;DHT22;1830;49.000;12.074;2023-07-28T02:42:16;15.40;99.90
3628;DHT22;1830;49.000;12.074;2023-07-28T02:44:43;15.40;99.90
3628;DHT22;1830;49.000;12.074;2023-07-28T02:47:10;15.40;99.90
3628;DHT22;1830;49.000;12.074;2023-07-28T02:49:37;15.40;99.90
3628;DHT22;1830;49.000;12.074;2023-07-28T02:52:04;15.40;99.90
3628;DHT22;1830;49.000;12.074;2023-07-28T02:54:32;15.40;99.90
3628;DHT22;1830;49.000;12.074;2023-07-28T02:56:59;15.40;99.90
3628;DHT22;1830;49.000;12.074;2023-07-28T02:59:26;15.50;99.90
3628;DHT22;1830;49.000;12.074;2023-07-28T03:01:52;15.50;99.90
3628;DHT22;1830;49.000;12.074;2023-07-28T03:04:19;15.50;99.90
3628;DHT22;1830;49.000;12.074;2023-07-28T03:06:46;15.40;99.90
3628;DHT22;1830;49.000;12.074;2023-07-28T03:09:13;15.40;99.90
3628;DHT22;1830;49.000;12.074;2023-07-28T03:11:43;15.50;99.90
3628;DHT22;1830;49.000;12.074;2023-07-28T03:14:09;15.40;99.90
3628;DHT22;1830;49.000;12.074;2023-07-28T03:16:38;15.40;99.90
3628;DHT22;1830;49.000;12.074;2023-07-28T03:19:05;15.50;99.90
3628;DHT22;1830;49.000;12.074;2023-07-28T03:21:32;15.50;99.90
3628;DHT22;1830;49.000;12.074;2023-07-28T03:23:59;15.40;99.90
3628;DHT22;1830;49.000;12.074;2023-07-28T03:26:26;15.40;99.90
3628;DHT22;1830;49.000;12.074;2023-07-28T03:28:54;15.50;99.90
3628;DHT22;1830;49.000;12.074;2023-07-28T03:31:22;15.50;99.90
3628;DHT22;1830;49.000;12.074;2023-07-28T03:33:49;15.50;99.90
3628;DHT22;1830;49.000;12.074;2023-07-28T03:36:15;15.50;99.90
3628;DHT22;1830;49.000;12.074;2023-07-28T03:38:44;15.40;99.90
3628;DHT22;1830;49.000;12.074;2023-07-28T03:41:11;15.40;99.90
3628;DHT22;1830;49.000;12.074;2023-07-28T03:43:38;15.40;99.90
3628;DHT22;1830;49.000;12.074;2023-07-28T03:46:06;15.30;99.90
3628;DHT22;1830;49.000;12.074;2023-07-28T03:48:33;15.30;99.90
3628;DHT22;1830;49.000;12.074;2023-07-28T03:51:00;15.30;99.90
3628;DHT22;1830;49.000;12.074;2023-07-28T03:53:29;15.30;99.90
3628;DHT22;1830;49.000;12.074;2023-07-28T03:55:56;15.30;99.90
3628;DHT22;1830;49.000;12.074;2023-07-28T03:58:23;15.30;99.90
3628;DHT22;1830;49.000;12.074;2023-07-28T04:00:51;15.30;99.90
3628;DHT22;1830;49.000;12.074;2023-07-28T04:03:19;15.30;99.90
3628;DHT22;1830;49.000;12.074;2023-07-28T04:05:46;15.30;99.90
3628;DHT22;1830;49.000;12.074;2023-07-28T04:08:13;15.30;99.90
3628;DHT22;1830;49.000;12.074;2023-07-28T04:10:40;15.30;99.90
3628;DHT22;1830;49.000;12.074;2023-07-28T04:13:08;15.20;99.90
3628;DHT22;1830;49.000;12.074;2023-07-28T04:15:35;15.30;99.90
3628;DHT22;1830;49.000;12.074;2023-07-28T04:18:01;15.20;99.90
3628;DHT22;1830;49.000;12.074;2023-07-28T04:20:29;15.30;99.90
3628;DHT22;1830;49.000;12.074;2023-07-28T04:22:56;15.40;99.90
3628;DHT22;1830;49.000;12.074;2023-07-28T04:25:23;15.40;99.90
3628;DHT22;1830;49.000;12.074;2023-07-28T04:27:51;15.40;99.90
3628;DHT22;1830;49.000;12.074;2023-07-28T04:30:18;15.30;99.90
3628;DHT22;1830;49.000;12.074;2023-07-28T04:32:44;15.30;99.90
3628;DHT22;1830;49.000;12.074;2023-07-28T04:35:13;15.30;99.90
3628;DHT22;1830;49.000;12.074;2023-07-28T04:37:41;15.30;99.90
3628;DHT22;1830;49.000;12.074;2023-07-28T04:40:08;15.30;99.90
3628;DHT22;1830;49.000;12.074;2023-07-28T04:42:35;15.30;99.90
3628;DHT22;1830;49.000;12.074;2023-07-28T04:45:03;15.30;99.90
3628;DHT22;1830;49.000;12.074;2023-07-28T04:47:30;15.30;99.90
3628;DHT22;1830;49.000;12.074;2023-07-28T04:49:56;15.20;99.90
3628;DHT22;1830;49.000;12.074;2023-07-28T04:52:23;15.30;99.90
3628;DHT22;1830;49.000;12.074;2023-07-28T04:54:51;15.30;99.90
3628;DHT22;1830;49.000;12.074;2023-07-28T04:57:18;15.30;99.90
3628;DHT22;1830;49.000;12.074;2023-07-28T04:59:45;15.40;99.90
3628;DHT22;1830;49.000;12.074;2023-07-28T05:02:12;15.40;99.90
3628;DHT22;1830;49.000;12.074;2023-07-28T05:04:39;15.40;99.90
3628;DHT22;1830;49.000;12.074;2023-07-28T05:07:05;15.50;99.90
3628;DHT22;1830;49.000;12.074;2023-07-28T05:09:32;15.50;99.90
3628;DHT22;1830;49.000;12.074;2023-07-28T05:12:00;15.50;99.90
3628;DHT22;1830;49.000;12.074;2023-07-28T05:14:27;15.60;99.90
3628;DHT22;1830;49.000;12.074;2023-07-28T05:16:54;15.60;99.90
3628;DHT22;1830;49.000;12.074;2023-07-28T05:19:20;15.70;99.90
3628;DHT22;1830;49.000;12.074;2023-07-28T05:21:47;15.80;99.90
3628;DHT22;1830;49.000;12.074;2023-07-28T05:24:14;15.80;99.90
3628;DHT22;1830;49.000;12.074;2023-07-28T05:26:41;15.80;99.90
3628;DHT22;1830;49.000;12.074;2023-07-28T05:29:09;15.90;99.90
3628;DHT22;1830;49.000;12.074;2023-07-28T05:31:35;15.90;99.90
3628;DHT22;1830;49.000;12.074;2023-07-28T05:34:03;15.90;99.90
3628;DHT22;1830;49.000;12.074;2023-07-28T05:36:30;16.00;99.90
3628;DHT22;1830;49.000;12.074;2023-07-28T05:38:57;16.00;99.90
3628;DHT22;1830;49.000;12.074;2023-07-28T05:41:24;16.00;99.90
3628;DHT22;1830;49.000;12.074;2023-07-28T05:43:51;16.00;99.90
3628;DHT22;1830;49.000;12.074;2023-07-28T05:46:19;16.10;99.90
3628;DHT22;1830;49.000;12.074;2023-07-28T05:48:46;16.10;99.90
3628;DHT22;1830;49.000;12.074;2023-07-28T05:51:13;16.20;99.90
3628;DHT22;1830;49.000;12.074;2023-07-28T05:53:40;16.20;99.90
3628;DHT22;1830;49.000;12.074;2023-07-28T05:56:06;16.10;99.90
3628;DHT22;1830;49.000;12.074;2023-07-28T05:58:33;16.20;99.90
3628;DHT22;1830;49.000;12.074;2023-07-28T06:01:00;16.20;99.90
3628;DHT22;1830;49.000;12.074;2023-07-28T06:03:28;16.20;99.90
3628;DHT22;1830;49.000;12.074;2023-07-28T06:05:56;16.30;99.90
3628;DHT22;1830;49.000;12.074;2023-07-28T06:08:23;16.40;99.90
3628;DHT22;1830;49.000;12.074;2023-07-28T06:10:49;16.50;99.90
3628;DHT22;1830;49.000;12.074;2023-07-28T06:13:16;16.40;99.90
3628;DHT22;1830;49.000;12.074;2023-07-28T06:15:43;16.40;99.90
3628;DHT22;1830;49.000;12.074;2023-07-28T06:18:10;16.40;99.90
3628;DHT22;1830;49.000;12.074;2023-07-28T06:20:41;16.40;99.90
3628;DHT22;1830;49.000;12.074;2023-07-28T06:23:07;16.40;99.90
3628;DHT22;1830;49.000;12.074;2023-07-28T06:25:34;16.50;99.90
3628;DHT22;1830;49.000;12.074;2023-07-28T06:28:01;16.50;99.90
3628;DHT22;1830;49.000;12.074;2023-07-28T06:30:28;16.50;99.90
3628;DHT22;1830;49.000;12.074;2023-07-28T06:32:56;16.50;99.90
3628;DHT22;1830;49.000;12.074;2023-07-28T06:35:23;16.60;99.90
3628;DHT22;1830;49.000;12.074;2023-07-28T06:37:51;16.70;99.90
3628;DHT22;1830;49.000;12.074;2023-07-28T06:40:17;16.60;99.90
3628;DHT22;1830;49.000;12.074;2023-07-28T06:42:44;16.70;99.90
3628;DHT22;1830;49.000;12.074;2023-07-28T06:45:11;16.60;99.90
3628;DHT22;1830;49.000;12.074;2023-07-28T06:47:39;16.70;99.90
3628;DHT22;1830;49.000;12.074;2023-07-28T06:50:06;16.70;99.90
3628;DHT22;1830;49.000;12.074;2023-07-28T06:52:33;16.70;99.90
3628;DHT22;1830;49.000;12.074;2023-07-28T06:55:01;16.80;99.90
3628;DHT22;1830;49.000;12.074;2023-07-28T06:57:28;16.80;99.90
3628;DHT22;1830;49.000;12.074;2023-07-28T06:59:56;16.80;99.90
3628;DHT22;1830;49.000;12.074;2023-07-28T07:02:23;16.90;99.90
3628;DHT22;1830;49.000;12.074;2023-07-28T07:04:49;16.90;99.90
3628;DHT22;1830;49.000;12.074;2023-07-28T07:07:16;16.90;99.90
3628;DHT22;1830;49.000;12.074;2023-07-28T07:09:43;17.00;99.90
3628;DHT22;1830;49.000;12.074;2023-07-28T07:12:12;17.00;99.90
3628;DHT22;1830;49.000;12.074;2023-07-28T07:14:39;17.10;99.90
3628;DHT22;1830;49.000;12.074;2023-07-28T07:17:06;17.20;99.90
3628;DHT22;1830;49.000;12.074;2023-07-28T07:19:33;17.30;99.90
3628;DHT22;1830;49.000;12.074;2023-07-28T07:22:00;17.20;99.90
3628;DHT22;1830;49.000;12.074;2023-07-28T07:24:27;17.20;99.90
3628;DHT22;1830;49.000;12.074;2023-07-28T07:26:54;17.30;99.90
3628;DHT22;1830;49.000;12.074;2023-07-28T07:29:22;17.30;99.90
3628;DHT22;1830;49.000;12.074;2023-07-28T07:31:49;17.40;99.90
3628;DHT22;1830;49.000;12.074;2023-07-28T07:34:20;17.50;99.90
3628;DHT22;1830;49.000;12.074;2023-07-28T07:36:47;17.50;99.90
3628;DHT22;1830;49.000;12.074;2023-07-28T07:39:14;17.60;99.90
3628;DHT22;1830;49.000;12.074;2023-07-28T07:41:40;17.70;99.90
3628;DHT22;1830;49.000;12.074;2023-07-28T07:44:07;17.70;99.90
3628;DHT22;1830;49.000;12.074;2023-07-28T07:46:35;17.90;99.90
3628;DHT22;1830;49.000;12.074;2023-07-28T07:49:02;17.90;99.90
3628;DHT22;1830;49.000;12.074;2023-07-28T07:51:31;17.90;99.90
3628;DHT22;1830;49.000;12.074;2023-07-28T07:53:59;18.00;99.90
3628;DHT22;1830;49.000;12.074;2023-07-28T07:56:26;18.10;99.90
3628;DHT22;1830;49.000;12.074;2023-07-28T07:58:53;18.10;99.90
3628;DHT22;1830;49.000;12.074;2023-07-28T08:01:20;18.20;99.90
3628;DHT22;1830;49.000;12.074;2023-07-28T08:03:48;18.30;99.90
3628;DHT22;1830;49.000;12.074;2023-07-28T08:06:15;18.40;99.90
3628;DHT22;1830;49.000;12.074;2023-07-28T08:08:42;18.50;99.90
3628;DHT22;1830;49.000;12.074;2023-07-28T08:11:10;18.60;99.90
3628;DHT22;1830;49.000;12.074;2023-07-28T08:13:37;18.60;99.90
3628;DHT22;1830;49.000;12.074;2023-07-28T08:16:04;18.60;99.90
3628;DHT22;1830;49.000;12.074;2023-07-28T08:18:31;18.70;99.90
3628;DHT22;1830;49.000;12.074;2023-07-28T08:21:03;18.70;99.90
3628;DHT22;1830;49.000;12.074;2023-07-28T08:23:29;18.70;99.90
3628;DHT22;1830;49.000;12.074;2023-07-28T08:25:56;18.70;99.90
3628;DHT22;1830;49.000;12.074;2023-07-28T08:28:23;18.70;99.90
3628;DHT22;1830;49.000;12.074;2023-07-28T08:30:54;18.80;99.90
3628;DHT22;1830;49.000;12.074;2023-07-28T08:33:22;18.80;99.90
3628;DHT22;1830;49.000;12.074;2023-07-28T08:35:48;18.90;99.90
3628;DHT22;1830;49.000;12.074;2023-07-28T08:38:17;18.90;99.90
3628;DHT22;1830;49.000;12.074;2023-07-28T08:40:45;18.90;99.90
3628;DHT22;1830;49.000;12.074;2023-07-28T08:43:11;18.90;99.90
3628;DHT22;1830;49.000;12.074;2023-07-28T08:45:38;19.00;99.90
3628;DHT22;1830;49.000;12.074;2023-07-28T08:48:05;19.00;99.90
3628;DHT22;1830;49.000;12.074;2023-07-28T08:50:33;19.10;99.90
3628;DHT22;1830;49.000;12.074;2023-07-28T08:53:00;19.10;99.90
3628;DHT22;1830;49.000;12.074;2023-07-28T08:55:28;19.20;99.90
3628;DHT22;1830;49.000;12.074;2023-07-28T08:57:55;19.20;99.90
3628;DHT22;1830;49.000;12.074;2023-07-28T09:00:23;19.20;99.90
3628;DHT22;1830;49.000;12.074;2023-07-28T09:02:51;19.20;99.90
3628;DHT22;1830;49.000;12.074;2023-07-28T09:05:18;19.10;99.90
3628;DHT22;1830;49.000;12.074;2023-07-28T09:07:46;19.10;99.90
3628;DHT22;1830;49.000;12.074;2023-07-28T09:10:13;19.00;99.90
3628;DHT22;1830;49.000;12.074;2023-07-28T09:12:47;19.00;99.90
3628;DHT22;1830;49.000;12.074;2023-07-28T09:15:14;19.10;99.90
3628;DHT22;1830;49.000;12.074;2023-07-28T09:17:42;19.10;99.90
3628;DHT22;1830;49.000;12.074;2023-07-28T09:20:13;19.00;99.90
3628;DHT22;1830;49.000;12.074;2023-07-28T09:22:40;19.00;99.90
3628;DHT22;1830;49.000;12.074;2023-07-28T09:25:12;18.90;99.90
3628;DHT22;1830;49.000;12.074;2023-07-28T09:27:39;19.00;99.90
3628;DHT22;1830;49.000;12.074;2023-07-28T09:30:08;19.00;99.90
3628;DHT22;1830;49.000;12.074;2023-07-28T09:32:34;19.10;99.90
3628;DHT22;1830;49.000;12.074;2023-07-28T09:35:09;19.00;99.90
3628;DHT22;1830;49.000;12.074;2023-07-28T09:37:40;18.90;99.90
3628;DHT22;1830;49.000;12.074;2023-07-28T09:40:10;18.90;99.90
3628;DHT22;1830;49.000;12.074;2023-07-28T09:42:37;18.90;99.90
3628;DHT22;1830;49.000;12.074;2023-07-28T09:45:07;18.90;99.90
3628;DHT22;1830;49.000;12.074;2023-07-28T09:47:35;18.90;99.90
3628;DHT22;1830;49.000;12.074;2023-07-28T09:50:03;18.80;99.90
3628;DHT22;1830;49.000;12.074;2023-07-28T09:52:34;18.80;99.90
3628;DHT22;1830;49.000;12.074;2023-07-28T09:55:06;18.70;99.90
3628;DHT22;1830;49.000;12.074;2023-07-28T09:57:37;18.70;99.90
3628;DHT22;1830;49.000;12.074;2023-07-28T10:00:08;18.70;99.90
3628;DHT22;1830;49.000;12.074;2023-07-28T10:02:37;18.60;99.90
3628;DHT22;1830;49.000;12.074;2023-07-28T10:05:05;18.70;99.90
3628;DHT22;1830;49.000;12.074;2023-07-28T10:07:32;18.80;99.90
3628;DHT22;1830;49.000;12.074;2023-07-28T10:10:00;18.80;99.90
3628;DHT22;1830;49.000;12.074;2023-07-28T10:12:27;19.00;99.90
3628;DHT22;1830;49.000;12.074;2023-07-28T10:15:00;19.00;99.90
3628;DHT22;1830;49.000;12.074;2023-07-28T10:17:32;19.10;99.90
3628;DHT22;1830;49.000;12.074;2023-07-28T10:20:02;19.10;99.90
3628;DHT22;1830;49.000;12.074;2023-07-28T10:22:32;19.20;99.90
3628;DHT22;1830;49.000;12.074;2023-07-28T10:25:01;19.40;99.90
3628;DHT22;1830;49.000;12.074;2023-07-28T10:27:29;19.50;99.90
3628;DHT22;1830;49.000;12.074;2023-07-28T10:29:57;19.60;99.90
3628;DHT22;1830;49.000;12.074;2023-07-28T10:32:26;19.80;99.90
3628;DHT22;1830;49.000;12.074;2023-07-28T10:35:01;19.90;99.90
3628;DHT22;1830;49.000;12.074;2023-07-28T10:37:28;19.90;99.90
3628;DHT22;1830;49.000;12.074;2023-07-28T10:40:22;20.10;99.90
3628;DHT22;1830;49.000;12.074;2023-07-28T10:42:50;20.20;99.90
3628;DHT22;1830;49.000;12.074;2023-07-28T10:45:18;20.30;99.90
3628;DHT22;1830;49.000;12.074;2023-07-28T10:47:45;20.20;99.90
3628;DHT22;1830;49.000;12.074;2023-07-28T10:50:14;20.20;99.90
3628;DHT22;1830;49.000;12.074;2023-07-28T10:52:42;20.30;99.90
3628;DHT22;1830;49.000;12.074;2023-07-28T10:55:13;20.30;99.90
3628;DHT22;1830;49.000;12.074;2023-07-28T10:57:41;20.40;99.90
3628;DHT22;1830;49.000;12.074;2023-07-28T11:00:09;20.50;99.90
3628;DHT22;1830;49.000;12.074;2023-07-28T11:02:38;20.50;99.90
3628;DHT22;1830;49.000;12.074;2023-07-28T11:05:09;20.50;99.90
3628;DHT22;1830;49.000;12.074;2023-07-28T11:07:38;20.50;99.90
3628;DHT22;1830;49.000;12.074;2023-07-28T11:10:07;20.50;99.90
3628;DHT22;1830;49.000;12.074;2023-07-28T11:12:34;20.70;99.90
3628;DHT22;1830;49.000;12.074;2023-07-28T11:15:01;20.80;99.90
3628;DHT22;1830;49.000;12.074;2023-07-28T11:17:28;20.80;99.90
3628;DHT22;1830;49.000;12.074;2023-07-28T11:19:55;20.70;99.90
3628;DHT22;1830;49.000;12.074;2023-07-28T11:22:22;20.70;99.90
3628;DHT22;1830;49.000;12.074;2023-07-28T11:24:52;20.70;99.90
3628;DHT22;1830;49.000;12.074;2023-07-28T11:27:19;20.70;99.90
3628;DHT22;1830;49.000;12.074;2023-07-28T11:29:46;20.70;99.90
3628;DHT22;1830;49.000;12.074;2023-07-28T11:32:15;20.70;99.90
3628;DHT22;1830;49.000;12.074;2023-07-28T11:34:43;21.00;99.90
3628;DHT22;1830;49.000;12.074;2023-07-28T11:37:10;21.40;99.90
3628;DHT22;1830;49.000;12.074;2023-07-28T11:39:38;21.50;99.90
3628;DHT22;1830;49.000;12.074;2023-07-28T11:42:09;21.60;99.90
3628;DHT22;1830;49.000;12.074;2023-07-28T11:44:36;21.70;99.90
3628;DHT22;1830;49.000;12.074;2023-07-28T11:47:05;21.60;99.90
3628;DHT22;1830;49.000;12.074;2023-07-28T11:49:32;21.70;99.90
3628;DHT22;1830;49.000;12.074;2023-07-28T11:51:58;21.80;99.90
3628;DHT22;1830;49.000;12.074;2023-07-28T11:54:26;21.80;99.90
3628;DHT22;1830;49.000;12.074;2023-07-28T11:56:55;21.70;99.90
3628;DHT22;1830;49.000;12.074;2023-07-28T11:59:24;21.70;99.90
3628;DHT22;1830;49.000;12.074;2023-07-28T12:01:52;21.90;99.90
3628;DHT22;1830;49.000;12.074;2023-07-28T12:04:19;21.90;99.90
3628;DHT22;1830;49.000;12.074;2023-07-28T12:07:04;21.90;99.90
3628;DHT22;1830;49.000;12.074;2023-07-28T12:09:32;21.80;99.90
3628;DHT22;1830;49.000;12.074;2023-07-28T12:11:58;21.60;99.90
3628;DHT22;1830;49.000;12.074;2023-07-28T12:14:34;21.50;99.90
3628;DHT22;1830;49.000;12.074;2023-07-28T12:17:01;21.70;99.90
3628;DHT22;1830;49.000;12.074;2023-07-28T12:19:28;22.00;99.90
3628;DHT22;1830;49.000;12.074;2023-07-28T12:21:55;22.10;99.90
3628;DHT22;1830;49.000;12.074;2023-07-28T12:24:22;22.30;99.90
3628;DHT22;1830;49.000;12.074;2023-07-28T12:26:50;22.50;99.90
3628;DHT22;1830;49.000;12.074;2023-07-28T12:29:17;22.70;99.90
3628;DHT22;1830;49.000;12.074;2023-07-28T12:31:45;22.90;99.90
3628;DHT22;1830;49.000;12.074;2023-07-28T12:34:12;23.00;99.90
3628;DHT22;1830;49.000;12.074;2023-07-28T12:36:39;23.00;99.90
3628;DHT22;1830;49.000;12.074;2023-07-28T12:39:06;23.10;99.90
3628;DHT22;1830;49.000;12.074;2023-07-28T12:41:33;23.00;99.90
3628;DHT22;1830;49.000;12.074;2023-07-28T12:43:59;23.10;99.90
3628;DHT22;1830;49.000;12.074;2023-07-28T12:46:26;23.40;99.90
3628;DHT22;1830;49.000;12.074;2023-07-28T12:48:54;23.20;99.90
3628;DHT22;1830;49.000;12.074;2023-07-28T12:51:21;23.00;99.90
3628;DHT22;1830;49.000;12.074;2023-07-28T12:53:48;23.00;99.90
3628;DHT22;1830;49.000;12.074;2023-07-28T12:56:14;22.80;99.90
3628;DHT22;1830;49.000;12.074;2023-07-28T12:58:41;22.60;99.90
3628;DHT22;1830;49.000;12.074;2023-07-28T13:01:08;22.50;99.90
3628;DHT22;1830;49.000;12.074;2023-07-28T13:03:37;22.50;99.90
3628;DHT22;1830;49.000;12.074;2023-07-28T13:06:05;22.50;99.90
3628;DHT22;1830;49.000;12.074;2023-07-28T13:08:32;22.60;99.90
3628;DHT22;1830;49.000;12.074;2023-07-28T13:10:59;22.70;99.90
3628;DHT22;1830;49.000;12.074;2023-07-28T13:13:26;22.80;99.90
3628;DHT22;1830;49.000;12.074;2023-07-28T13:15:55;22.80;99.90
3628;DHT22;1830;49.000;12.074;2023-07-28T13:18:23;22.70;99.90
3628;DHT22;1830;49.000;12.074;2023-07-28T13:20:50;22.70;99.90
3628;DHT22;1830;49.000;12.074;2023-07-28T13:23:18;22.70;99.90
3628;DHT22;1830;49.000;12.074;2023-07-28T13:25:45;22.70;99.90
3628;DHT22;1830;49.000;12.074;2023-07-28T13:28:11;22.70;99.90
3628;DHT22;1830;49.000;12.074;2023-07-28T13:30:39;22.90;99.90
3628;DHT22;1830;49.000;12.074;2023-07-28T13:33:06;23.00;99.90
3628;DHT22;1830;49.000;12.074;2023-07-28T13:35:33;23.30;99.90
3628;DHT22;1830;49.000;12.074;2023-07-28T13:37:59;23.40;99.90
3628;DHT22;1830;49.000;12.074;2023-07-28T13:40:28;23.40;99.90
3628;DHT22;1830;49.000;12.074;2023-07-28T13:43:12;23.30;99.90
3628;DHT22;1830;49.000;12.074;2023-07-28T13:45:43;23.20;99.90
3628;DHT22;1830;49.000;12.074;2023-07-28T13:48:10;23.20;99.90
3628;DHT22;1830;49.000;12.074;2023-07-28T13:50:40;23.00;99.90
3628;DHT22;1830;49.000;12.074;2023-07-28T13:53:12;22.90;99.90
3628;DHT22;1830;49.000;12.074;2023-07-28T13:55:40;22.90;99.90
3628;DHT22;1830;49.000;12.074;2023-07-28T13:58:07;23.00;99.90
3628;DHT22;1830;49.000;12.074;2023-07-28T14:00:34;23.10;99.90
3628;DHT22;1830;49.000;12.074;2023-07-28T14:03:08;23.20;99.90
3628;DHT22;1830;49.000;12.074;2023-07-28T14:05:39;23.20;99.90
3628;DHT22;1830;49.000;12.074;2023-07-28T14:08:08;23.20;99.90
3628;DHT22;1830;49.000;12.074;2023-07-28T14:10:36;23.10;99.90
3628;DHT22;1830;49.000;12.074;2023-07-28T14:13:05;23.20;99.90
3628;DHT22;1830;49.000;12.074;2023-07-28T14:15:40;23.10;99.90
3628;DHT22;1830;49.000;12.074;2023-07-28T14:18:09;23.10;99.90
3628;DHT22;1830;49.000;12.074;2023-07-28T14:20:35;23.10;99.90
3628;DHT22;1830;49.000;12.074;2023-07-28T14:23:20;23.20;99.90
3628;DHT22;1830;49.000;12.074;2023-07-28T14:25:47;23.20;99.90
3628;DHT22;1830;49.000;12.074;2023-07-28T14:28:15;23.30;99.90
3628;DHT22;1830;49.000;12.074;2023-07-28T14:30:42;23.20;99.90
3628;DHT22;1830;49.000;12.074;2023-07-28T14:33:11;23.30;99.90
3628;DHT22;1830;49.000;12.074;2023-07-28T14:35:38;23.30;99.90
3628;DHT22;1830;49.000;12.074;2023-07-28T14:38:05;23.20;99.90
3628;DHT22;1830;49.000;12.074;2023-07-28T14:40:32;23.20;99.90
3628;DHT22;1830;49.000;12.074;2023-07-28T14:42:59;23.20;99.90
3628;DHT22;1830;49.000;12.074;2023-07-28T14:45:27;23.10;99.90
3628;DHT22;1830;49.000;12.074;2023-07-28T14:47:54;23.10;99.90
3628;DHT22;1830;49.000;12.074;2023-07-28T14:50:21;23.10;99.90
3628;DHT22;1830;49.000;12.074;2023-07-28T14:52:48;23.00;99.90
3628;DHT22;1830;49.000;12.074;2023-07-28T14:55:15;23.00;99.90
3628;DHT22;1830;49.000;12.074;2023-07-28T14:57:42;23.10;99.90
3628;DHT22;1830;49.000;12.074;2023-07-28T15:00:09;23.10;99.90
3628;DHT22;1830;49.000;12.074;2023-07-28T15:02:38;23.20;99.90
3628;DHT22;1830;49.000;12.074;2023-07-28T15:05:05;23.30;99.90
3628;DHT22;1830;49.000;12.074;2023-07-28T15:07:33;23.30;99.90
3628;DHT22;1830;49.000;12.074;2023-07-28T15:10:00;23.40;99.90
3628;DHT22;1830;49.000;12.074;2023-07-28T15:12:33;23.50;99.90
3628;DHT22;1830;49.000;12.074;2023-07-28T15:15:03;23.60;99.90
3628;DHT22;1830;49.000;12.074;2023-07-28T15:17:30;23.70;99.90
3628;DHT22;1830;49.000;12.074;2023-07-28T15:19:58;23.80;99.90
3628;DHT22;1830;49.000;12.074;2023-07-28T15:22:25;23.80;99.90
3628;DHT22;1830;49.000;12.074;2023-07-28T15:24:51;23.90;99.90
3628;DHT22;1830;49.000;12.074;2023-07-28T15:27:18;23.80;99.90
3628;DHT22;1830;49.000;12.074;2023-07-28T15:29:45;23.80;99.90
3628;DHT22;1830;49.000;12.074;2023-07-28T15:32:12;23.80;99.90
3628;DHT22;1830;49.000;12.074;2023-07-28T15:34:38;23.90;99.90
3628;DHT22;1830;49.000;12.074;2023-07-28T15:37:06;23.90;99.90
3628;DHT22;1830;49.000;12.074;2023-07-28T15:39:33;23.80;99.90
3628;DHT22;1830;49.000;12.074;2023-07-28T15:42:00;23.60;99.90
3628;DHT22;1830;49.000;12.074;2023-07-28T15:44:27;23.60;99.90
3628;DHT22;1830;49.000;12.074;2023-07-28T15:46:53;23.60;99.90
3628;DHT22;1830;49.000;12.074;2023-07-28T15:49:20;23.50;99.90